sensor_id;sensor_type;location;lat;lon;timestamp;P1;durP1;ratioP1;P2;durP2;ratioP2
35969;SDS011;22448;51.298;6.430;2023-05-29T00:00:39;6.80;;;3.80;;
35969;SDS011;22448;51.298;6.430;2023-05-29T00:03:06;8.95;;;4.47;;
35969;SDS011;22448;51.298;6.430;2023-05-29T00:05:35;10.27;;;3.90;;
35969;SDS011;22448;51.298;6.430;2023-05-29T00:08:02;7.60;;;3.83;;
35969;SDS011;22448;51.298;6.430;2023-05-29T00:10:30;6.43;;;3.88;;
35969;SDS011;22448;51.298;6.430;2023-05-29T00:12:57;11.38;;;4.05;;
35969;SDS011;22448;51.298;6.430;2023-05-29T00:15:24;6.68;;;3.45;;
35969;SDS011;22448;51.298;6.430;2023-05-29T00:17:52;5.85;;;3.88;;
35969;SDS011;22448;51.298;6.430;2023-05-29T00:20:19;14.25;;;4.45;;
35969;SDS011;22448;51.298;6.430;2023-05-29T00:22:46;8.40;;;3.92;;
35969;SDS011;22448;51.298;6.430;2023-05-29T00:25:14;10.68;;;4.65;;
35969;SDS011;22448;51.298;6.430;2023-05-29T00:27:41;10.13;;;4.57;;
35969;SDS011;22448;51.298;6.430;2023-05-29T00:30:08;10.52;;;4.25;;
35969;SDS011;22448;51.298;6.430;2023-05-29T00:32:36;6.88;;;4.25;;
35969;SDS011;22448;51.298;6.430;2023-05-29T00:35:03;17.52;;;5.70;;
35969;SDS011;22448;51.298;6.430;2023-05-29T00:37:30;9.55;;;4.70;;
35969;SDS011;22448;51.298;6.430;2023-05-29T00:39:57;8.88;;;4.47;;
35969;SDS011;22448;51.298;6.430;2023-05-29T00:42:24;13.65;;;4.63;;
35969;SDS011;22448;51.298;6.430;2023-05-29T00:44:52;7.88;;;4.30;;
35969;SDS011;22448;51.298;6.430;2023-05-29T00:47:19;14.43;;;4.78;;
35969;SDS011;22448;51.298;6.430;2023-05-29T00:49:47;10.70;;;4.68;;
35969;SDS011;22448;51.298;6.430;2023-05-29T00:52:17;12.88;;;5.15;;
35969;SDS011;22448;51.298;6.430;2023-05-29T00:54:46;16.08;;;4.65;;
35969;SDS011;22448;51.298;6.430;2023-05-29T00:57:13;9.05;;;4.50;;
35969;SDS011;22448;51.298;6.430;2023-05-29T00:59:42;10.38;;;4.85;;
35969;SDS011;22448;51.298;6.430;2023-05-29T01:02:12;8.93;;;4.85;;
35969;SDS011;22448;51.298;6.430;2023-05-29T01:04:40;14.13;;;5.00;;
35969;SDS011;22448;51.298;6.430;2023-05-29T01:07:07;14.05;;;5.60;;
35969;SDS011;22448;51.298;6.430;2023-05-29T01:09:36;10.60;;;5.30;;
35969;SDS011;22448;51.298;6.430;2023-05-29T01:20:34;19.77;;;5.72;;
35969;SDS011;22448;51.298;6.430;2023-05-29T01:29:02;14.63;;;6.70;;
35969;SDS011;22448;51.298;6.430;2023-05-29T01:31:31;19.02;;;7.00;;
35969;SDS011;22448;51.298;6.430;2023-05-29T01:33:59;18.42;;;7.07;;
35969;SDS011;22448;51.298;6.430;2023-05-29T01:36:27;24.08;;;7.53;;
35969;SDS011;22448;51.298;6.430;2023-05-29T01:38:55;15.63;;;6.95;;
35969;SDS011;22448;51.298;6.430;2023-05-29T01:41:23;17.05;;;7.45;;
35969;SDS011;22448;51.298;6.430;2023-05-29T01:43:52;16.95;;;7.80;;
35969;SDS011;22448;51.298;6.430;2023-05-29T01:46:20;15.52;;;7.50;;
35969;SDS011;22448;51.298;6.430;2023-05-29T01:48:48;19.58;;;7.47;;
35969;SDS011;22448;51.298;6.430;2023-05-29T01:51:15;14.10;;;7.53;;
35969;SDS011;22448;51.298;6.430;2023-05-29T01:53:42;23.30;;;6.93;;
35969;SDS011;22448;51.298;6.430;2023-05-29T01:56:10;14.25;;;6.65;;
35969;SDS011;22448;51.298;6.430;2023-05-29T01:58:38;17.40;;;6.75;;
35969;SDS011;22448;51.298;6.430;2023-05-29T02:01:07;19.00;;;6.82;;
35969;SDS011;22448;51.298;6.430;2023-05-29T02:03:34;22.92;;;6.72;;
35969;SDS011;22448;51.298;6.430;2023-05-29T02:06:01;18.50;;;7.57;;
35969;SDS011;22448;51.298;6.430;2023-05-29T02:08:28;17.42;;;7.20;;
35969;SDS011;22448;51.298;6.430;2023-05-29T02:10:56;17.63;;;6.95;;
35969;SDS011;22448;51.298;6.430;2023-05-29T02:13:23;20.17;;;6.95;;
35969;SDS011;22448;51.298;6.430;2023-05-29T02:15:50;21.15;;;6.80;;
35969;SDS011;22448;51.298;6.430;2023-05-29T02:18:18;24.70;;;7.07;;
35969;SDS011;22448;51.298;6.430;2023-05-29T02:20:45;17.20;;;6.25;;
35969;SDS011;22448;51.298;6.430;2023-05-29T02:23:20;22.23;;;5.70;;
35969;SDS011;22448;51.298;6.430;2023-05-29T02:25:49;20.42;;;5.43;;
35969;SDS011;22448;51.298;6.430;2023-05-29T02:28:18;24.73;;;6.20;;
35969;SDS011;22448;51.298;6.430;2023-05-29T02:30:45;23.98;;;5.20;;
35969;SDS011;22448;51.298;6.430;2023-05-29T02:33:12;17.77;;;4.90;;
35969;SDS011;22448;51.298;6.430;2023-05-29T02:35:39;21.65;;;4.88;;
35969;SDS011;22448;51.298;6.430;2023-05-29T02:38:06;25.17;;;4.70;;
35969;SDS011;22448;51.298;6.430;2023-05-29T02:40:33;27.50;;;4.90;;
35969;SDS011;22448;51.298;6.430;2023-05-29T02:43:00;13.18;;;4.55;;
35969;SDS011;22448;51.298;6.430;2023-05-29T02:45:30;17.83;;;4.22;;
35969;SDS011;22448;51.298;6.430;2023-05-29T02:47:57;20.55;;;4.90;;
35969;SDS011;22448;51.298;6.430;2023-05-29T02:50:25;19.67;;;4.05;;
35969;SDS011;22448;51.298;6.430;2023-05-29T02:52:53;24.60;;;4.80;;
35969;SDS011;22448;51.298;6.430;2023-05-29T02:55:20;24.67;;;4.93;;
35969;SDS011;22448;51.298;6.430;2023-05-29T02:57:47;18.23;;;4.65;;
35969;SDS011;22448;51.298;6.430;2023-05-29T03:00:18;18.55;;;4.38;;
35969;SDS011;22448;51.298;6.430;2023-05-29T03:02:45;18.88;;;5.00;;
35969;SDS011;22448;51.298;6.430;2023-05-29T03:05:13;22.15;;;4.90;;
35969;SDS011;22448;51.298;6.430;2023-05-29T03:07:40;23.58;;;5.35;;
35969;SDS011;22448;51.298;6.430;2023-05-29T03:10:08;16.48;;;4.25;;
35969;SDS011;22448;51.298;6.430;2023-05-29T03:12:36;17.02;;;4.65;;
35969;SDS011;22448;51.298;6.430;2023-05-29T03:15:04;31.98;;;5.30;;
35969;SDS011;22448;51.298;6.430;2023-05-29T03:17:31;19.67;;;5.00;;
35969;SDS011;22448;51.298;6.430;2023-05-29T03:19:59;29.95;;;6.00;;
35969;SDS011;22448;51.298;6.430;2023-05-29T03:22:26;20.20;;;4.40;;
35969;SDS011;22448;51.298;6.430;2023-05-29T03:24:53;19.25;;;4.45;;
35969;SDS011;22448;51.298;6.430;2023-05-29T03:27:21;19.83;;;4.70;;
35969;SDS011;22448;51.298;6.430;2023-05-29T03:29:58;17.83;;;4.53;;
35969;SDS011;22448;51.298;6.430;2023-05-29T03:32:26;22.90;;;4.97;;
35969;SDS011;22448;51.298;6.430;2023-05-29T03:34:53;17.20;;;4.63;;
35969;SDS011;22448;51.298;6.430;2023-05-29T03:37:20;24.80;;;4.95;;
35969;SDS011;22448;51.298;6.430;2023-05-29T03:39:47;27.90;;;5.07;;
35969;SDS011;22448;51.298;6.430;2023-05-29T03:42:14;25.67;;;5.70;;
35969;SDS011;22448;51.298;6.430;2023-05-29T03:44:41;25.63;;;5.00;;
35969;SDS011;22448;51.298;6.430;2023-05-29T03:47:10;24.35;;;4.90;;
35969;SDS011;22448;51.298;6.430;2023-05-29T03:49:37;24.58;;;4.78;;
35969;SDS011;22448;51.298;6.430;2023-05-29T03:52:04;27.00;;;5.05;;
35969;SDS011;22448;51.298;6.430;2023-05-29T03:54:32;24.85;;;5.10;;
35969;SDS011;22448;51.298;6.430;2023-05-29T03:57:01;26.08;;;5.03;;
35969;SDS011;22448;51.298;6.430;2023-05-29T03:59:28;18.55;;;4.75;;
35969;SDS011;22448;51.298;6.430;2023-05-29T04:01:56;29.88;;;5.90;;
35969;SDS011;22448;51.298;6.430;2023-05-29T04:04:23;30.10;;;4.57;;
35969;SDS011;22448;51.298;6.430;2023-05-29T04:06:51;25.20;;;5.45;;
35969;SDS011;22448;51.298;6.430;2023-05-29T04:09:18;29.48;;;5.32;;
35969;SDS011;22448;51.298;6.430;2023-05-29T04:11:45;20.20;;;4.40;;
35969;SDS011;22448;51.298;6.430;2023-05-29T04:14:12;32.92;;;5.97;;
35969;SDS011;22448;51.298;6.430;2023-05-29T04:16:39;29.77;;;5.53;;
35969;SDS011;22448;51.298;6.430;2023-05-29T04:19:06;26.95;;;5.20;;
35969;SDS011;22448;51.298;6.430;2023-05-29T04:21:33;29.20;;;6.25;;
35969;SDS011;22448;51.298;6.430;2023-05-29T04:24:01;22.95;;;5.35;;
35969;SDS011;22448;51.298;6.430;2023-05-29T04:26:28;28.42;;;5.60;;
35969;SDS011;22448;51.298;6.430;2023-05-29T04:28:55;28.20;;;5.40;;
35969;SDS011;22448;51.298;6.430;2023-05-29T04:31:25;28.17;;;6.25;;
35969;SDS011;22448;51.298;6.430;2023-05-29T04:33:54;32.38;;;5.13;;
35969;SDS011;22448;51.298;6.430;2023-05-29T04:36:23;23.27;;;5.05;;
35969;SDS011;22448;51.298;6.430;2023-05-29T04:39:02;25.65;;;5.30;;
35969;SDS011;22448;51.298;6.430;2023-05-29T04:41:29;36.03;;;6.43;;
35969;SDS011;22448;51.298;6.430;2023-05-29T04:43:59;31.40;;;5.15;;
35969;SDS011;22448;51.298;6.430;2023-05-29T04:46:33;30.55;;;5.35;;
35969;SDS011;22448;51.298;6.430;2023-05-29T04:49:03;24.48;;;5.63;;
35969;SDS011;22448;51.298;6.430;2023-05-29T04:51:31;26.58;;;5.38;;
35969;SDS011;22448;51.298;6.430;2023-05-29T04:53:58;26.42;;;5.78;;
35969;SDS011;22448;51.298;6.430;2023-05-29T04:56:25;40.42;;;5.53;;
35969;SDS011;22448;51.298;6.430;2023-05-29T04:58:53;36.70;;;5.82;;
35969;SDS011;22448;51.298;6.430;2023-05-29T05:01:21;29.17;;;5.82;;
35969;SDS011;22448;51.298;6.430;2023-05-29T05:03:48;18.00;;;4.40;;
35969;SDS011;22448;51.298;6.430;2023-05-29T05:06:15;26.27;;;5.32;;
35969;SDS011;22448;51.298;6.430;2023-05-29T05:08:43;28.40;;;5.30;;
35969;SDS011;22448;51.298;6.430;2023-05-29T05:11:10;38.40;;;6.15;;
35969;SDS011;22448;51.298;6.430;2023-05-29T05:13:39;25.17;;;4.68;;
35969;SDS011;22448;51.298;6.430;2023-05-29T05:16:06;28.65;;;4.45;;
35969;SDS011;22448;51.298;6.430;2023-05-29T05:18:34;26.98;;;4.85;;
35969;SDS011;22448;51.298;6.430;2023-05-29T05:21:03;38.70;;;5.25;;
35969;SDS011;22448;51.298;6.430;2023-05-29T05:23:32;30.80;;;5.57;;
35969;SDS011;22448;51.298;6.430;2023-05-29T05:26:19;27.65;;;5.25;;
35969;SDS011;22448;51.298;6.430;2023-05-29T05:28:47;21.67;;;4.63;;
35969;SDS011;22448;51.298;6.430;2023-05-29T05:31:14;26.30;;;5.18;;
35969;SDS011;22448;51.298;6.430;2023-05-29T05:33:41;25.27;;;5.28;;
35969;SDS011;22448;51.298;6.430;2023-05-29T05:36:08;18.42;;;4.40;;
35969;SDS011;22448;51.298;6.430;2023-05-29T05:38:37;27.58;;;5.07;;
35969;SDS011;22448;51.298;6.430;2023-05-29T05:41:04;34.17;;;5.55;;
35969;SDS011;22448;51.298;6.430;2023-05-29T05:43:32;28.95;;;4.72;;
35969;SDS011;22448;51.298;6.430;2023-05-29T05:46:09;24.02;;;5.25;;
35969;SDS011;22448;51.298;6.430;2023-05-29T05:48:36;24.42;;;5.45;;
35969;SDS011;22448;51.298;6.430;2023-05-29T05:51:03;22.20;;;5.40;;
35969;SDS011;22448;51.298;6.430;2023-05-29T05:53:31;21.35;;;4.72;;
35969;SDS011;22448;51.298;6.430;2023-05-29T05:55:58;22.73;;;5.53;;
35969;SDS011;22448;51.298;6.430;2023-05-29T05:58:25;25.83;;;5.13;;
35969;SDS011;22448;51.298;6.430;2023-05-29T06:00:53;24.60;;;5.28;;
35969;SDS011;22448;51.298;6.430;2023-05-29T06:03:20;22.85;;;5.60;;
35969;SDS011;22448;51.298;6.430;2023-05-29T06:05:56;28.83;;;5.35;;
35969;SDS011;22448;51.298;6.430;2023-05-29T06:08:23;22.00;;;5.20;;
35969;SDS011;22448;51.298;6.430;2023-05-29T06:10:51;19.80;;;4.40;;
35969;SDS011;22448;51.298;6.430;2023-05-29T06:13:19;23.73;;;5.22;;
35969;SDS011;22448;51.298;6.430;2023-05-29T06:15:50;27.45;;;4.78;;
35969;SDS011;22448;51.298;6.430;2023-05-29T06:18:17;24.35;;;5.50;;
35969;SDS011;22448;51.298;6.430;2023-05-29T06:20:44;23.75;;;5.20;;
35969;SDS011;22448;51.298;6.430;2023-05-29T06:23:13;24.70;;;5.40;;
35969;SDS011;22448;51.298;6.430;2023-05-29T06:25:40;23.02;;;4.68;;
35969;SDS011;22448;51.298;6.430;2023-05-29T06:28:08;22.00;;;5.05;;
35969;SDS011;22448;51.298;6.430;2023-05-29T06:30:35;22.67;;;4.50;;
35969;SDS011;22448;51.298;6.430;2023-05-29T06:33:05;24.40;;;5.18;;
35969;SDS011;22448;51.298;6.430;2023-05-29T06:35:35;22.88;;;5.50;;
35969;SDS011;22448;51.298;6.430;2023-05-29T06:38:02;21.63;;;5.35;;
35969;SDS011;22448;51.298;6.430;2023-05-29T06:40:30;25.83;;;5.55;;
35969;SDS011;22448;51.298;6.430;2023-05-29T06:42:57;19.48;;;4.25;;
35969;SDS011;22448;51.298;6.430;2023-05-29T06:45:45;25.80;;;4.95;;
35969;SDS011;22448;51.298;6.430;2023-05-29T06:48:12;26.55;;;5.60;;
35969;SDS011;22448;51.298;6.430;2023-05-29T06:50:40;17.70;;;4.10;;
35969;SDS011;22448;51.298;6.430;2023-05-29T06:53:27;24.20;;;4.78;;
35969;SDS011;22448;51.298;6.430;2023-05-29T06:55:55;26.83;;;4.97;;
35969;SDS011;22448;51.298;6.430;2023-05-29T06:58:22;19.48;;;4.75;;
35969;SDS011;22448;51.298;6.430;2023-05-29T07:00:49;25.85;;;4.43;;
35969;SDS011;22448;51.298;6.430;2023-05-29T07:03:26;23.45;;;5.53;;
35969;SDS011;22448;51.298;6.430;2023-05-29T07:05:53;21.13;;;4.43;;
35969;SDS011;22448;51.298;6.430;2023-05-29T07:08:21;26.45;;;4.85;;
35969;SDS011;22448;51.298;6.430;2023-05-29T07:10:50;20.00;;;4.18;;
35969;SDS011;22448;51.298;6.430;2023-05-29T07:13:19;20.13;;;4.00;;
35969;SDS011;22448;51.298;6.430;2023-05-29T07:15:48;25.90;;;4.75;;
35969;SDS011;22448;51.298;6.430;2023-05-29T07:18:17;19.52;;;4.65;;
35969;SDS011;22448;51.298;6.430;2023-05-29T07:20:44;25.60;;;4.60;;
35969;SDS011;22448;51.298;6.430;2023-05-29T07:23:13;18.70;;;4.13;;
35969;SDS011;22448;51.298;6.430;2023-05-29T07:25:40;30.00;;;4.70;;
35969;SDS011;22448;51.298;6.430;2023-05-29T07:28:09;25.70;;;4.65;;
35969;SDS011;22448;51.298;6.430;2023-05-29T07:30:48;26.80;;;5.43;;
35969;SDS011;22448;51.298;6.430;2023-05-29T07:33:15;23.33;;;4.63;;
35969;SDS011;22448;51.298;6.430;2023-05-29T07:35:43;21.08;;;4.72;;
35969;SDS011;22448;51.298;6.430;2023-05-29T07:38:10;22.00;;;4.18;;
35969;SDS011;22448;51.298;6.430;2023-05-29T07:40:39;22.52;;;4.70;;
35969;SDS011;22448;51.298;6.430;2023-05-29T07:43:18;18.17;;;3.78;;
35969;SDS011;22448;51.298;6.430;2023-05-29T07:45:51;23.38;;;4.22;;
35969;SDS011;22448;51.298;6.430;2023-05-29T07:48:18;25.67;;;5.30;;
35969;SDS011;22448;51.298;6.430;2023-05-29T07:50:49;20.02;;;4.15;;
35969;SDS011;22448;51.298;6.430;2023-05-29T07:53:19;18.95;;;3.95;;
35969;SDS011;22448;51.298;6.430;2023-05-29T07:55:47;19.27;;;4.32;;
35969;SDS011;22448;51.298;6.430;2023-05-29T07:58:14;18.90;;;4.38;;
35969;SDS011;22448;51.298;6.430;2023-05-29T08:00:44;27.77;;;5.10;;
35969;SDS011;22448;51.298;6.430;2023-05-29T08:03:12;22.00;;;4.57;;
35969;SDS011;22448;51.298;6.430;2023-05-29T08:05:58;13.85;;;3.83;;
35969;SDS011;22448;51.298;6.430;2023-05-29T08:08:27;25.17;;;5.00;;
35969;SDS011;22448;51.298;6.430;2023-05-29T08:10:54;17.80;;;3.88;;
35969;SDS011;22448;51.298;6.430;2023-05-29T08:13:22;19.15;;;4.50;;
35969;SDS011;22448;51.298;6.430;2023-05-29T08:15:48;22.55;;;5.38;;
35969;SDS011;22448;51.298;6.430;2023-05-29T08:18:15;14.95;;;4.05;;
35969;SDS011;22448;51.298;6.430;2023-05-29T08:20:42;26.83;;;5.28;;
35969;SDS011;22448;51.298;6.430;2023-05-29T08:23:10;24.83;;;4.93;;
35969;SDS011;22448;51.298;6.430;2023-05-29T08:25:37;21.48;;;4.28;;
35969;SDS011;22448;51.298;6.430;2023-05-29T08:28:04;23.08;;;5.15;;
35969;SDS011;22448;51.298;6.430;2023-05-29T08:30:31;17.67;;;4.32;;
35969;SDS011;22448;51.298;6.430;2023-05-29T08:32:58;26.48;;;5.30;;
35969;SDS011;22448;51.298;6.430;2023-05-29T08:35:25;18.67;;;4.90;;
35969;SDS011;22448;51.298;6.430;2023-05-29T08:37:52;27.50;;;4.30;;
35969;SDS011;22448;51.298;6.430;2023-05-29T08:40:19;23.77;;;4.43;;
35969;SDS011;22448;51.298;6.430;2023-05-29T08:42:47;19.35;;;4.43;;
35969;SDS011;22448;51.298;6.430;2023-05-29T08:45:22;21.80;;;4.20;;
35969;SDS011;22448;51.298;6.430;2023-05-29T08:47:52;19.73;;;4.55;;
35969;SDS011;22448;51.298;6.430;2023-05-29T08:50:20;20.65;;;4.53;;
35969;SDS011;22448;51.298;6.430;2023-05-29T08:52:48;24.65;;;4.93;;
35969;SDS011;22448;51.298;6.430;2023-05-29T08:55:15;24.30;;;5.03;;
35969;SDS011;22448;51.298;6.430;2023-05-29T08:57:43;28.83;;;4.80;;
35969;SDS011;22448;51.298;6.430;2023-05-29T09:00:11;21.58;;;4.50;;
35969;SDS011;22448;51.298;6.430;2023-05-29T09:02:39;19.60;;;4.72;;
35969;SDS011;22448;51.298;6.430;2023-05-29T09:05:06;17.27;;;4.45;;
35969;SDS011;22448;51.298;6.430;2023-05-29T09:07:34;21.40;;;4.75;;
35969;SDS011;22448;51.298;6.430;2023-05-29T09:10:05;20.77;;;4.78;;
35969;SDS011;22448;51.298;6.430;2023-05-29T09:12:33;17.63;;;3.72;;
35969;SDS011;22448;51.298;6.430;2023-05-29T09:15:01;21.25;;;4.40;;
35969;SDS011;22448;51.298;6.430;2023-05-29T09:17:32;20.63;;;4.35;;
35969;SDS011;22448;51.298;6.430;2023-05-29T09:20:00;26.98;;;4.28;;
35969;SDS011;22448;51.298;6.430;2023-05-29T09:22:27;21.85;;;4.38;;
35969;SDS011;22448;51.298;6.430;2023-05-29T09:24:54;23.92;;;5.00;;
35969;SDS011;22448;51.298;6.430;2023-05-29T09:27:21;19.55;;;4.10;;
35969;SDS011;22448;51.298;6.430;2023-05-29T09:29:48;22.63;;;4.65;;
35969;SDS011;22448;51.298;6.430;2023-05-29T09:32:16;17.83;;;4.18;;
35969;SDS011;22448;51.298;6.430;2023-05-29T09:34:44;18.60;;;4.45;;
35969;SDS011;22448;51.298;6.430;2023-05-29T09:37:12;23.67;;;4.20;;
35969;SDS011;22448;51.298;6.430;2023-05-29T09:42:16;16.27;;;4.30;;
35969;SDS011;22448;51.298;6.430;2023-05-29T09:44:44;18.73;;;4.57;;
35969;SDS011;22448;51.298;6.430;2023-05-29T09:47:16;27.20;;;5.25;;
35969;SDS011;22448;51.298;6.430;2023-05-29T09:49:44;22.27;;;4.35;;
35969;SDS011;22448;51.298;6.430;2023-05-29T09:52:14;21.67;;;4.72;;
35969;SDS011;22448;51.298;6.430;2023-05-29T09:54:42;23.35;;;4.95;;
35969;SDS011;22448;51.298;6.430;2023-05-29T09:57:13;23.23;;;4.35;;
35969;SDS011;22448;51.298;6.430;2023-05-29T09:59:41;19.13;;;4.45;;
35969;SDS011;22448;51.298;6.430;2023-05-29T10:02:11;22.92;;;4.20;;
35969;SDS011;22448;51.298;6.430;2023-05-29T10:04:40;26.30;;;4.85;;
35969;SDS011;22448;51.298;6.430;2023-05-29T10:07:08;18.15;;;4.28;;
35969;SDS011;22448;51.298;6.430;2023-05-29T10:09:43;16.65;;;4.18;;
35969;SDS011;22448;51.298;6.430;2023-05-29T10:12:14;16.70;;;3.78;;
35969;SDS011;22448;51.298;6.430;2023-05-29T10:14:43;21.08;;;4.53;;
35969;SDS011;22448;51.298;6.430;2023-05-29T10:17:11;20.45;;;4.60;;
35969;SDS011;22448;51.298;6.430;2023-05-29T10:19:40;20.17;;;4.28;;
35969;SDS011;22448;51.298;6.430;2023-05-29T10:22:09;17.10;;;4.28;;
35969;SDS011;22448;51.298;6.430;2023-05-29T10:24:37;17.88;;;4.95;;
35969;SDS011;22448;51.298;6.430;2023-05-29T10:27:04;19.88;;;5.05;;
35969;SDS011;22448;51.298;6.430;2023-05-29T10:29:34;18.55;;;4.25;;
35969;SDS011;22448;51.298;6.430;2023-05-29T10:34:48;26.35;;;4.80;;
35969;SDS011;22448;51.298;6.430;2023-05-29T10:40:08;17.65;;;4.15;;
35969;SDS011;22448;51.298;6.430;2023-05-29T10:42:46;16.23;;;3.97;;
35969;SDS011;22448;51.298;6.430;2023-05-29T10:50:42;15.82;;;4.63;;
35969;SDS011;22448;51.298;6.430;2023-05-29T10:53:10;21.95;;;4.22;;
35969;SDS011;22448;51.298;6.430;2023-05-29T10:55:41;17.55;;;3.97;;
35969;SDS011;22448;51.298;6.430;2023-05-29T10:58:09;23.27;;;4.95;;
35969;SDS011;22448;51.298;6.430;2023-05-29T11:00:40;19.90;;;4.28;;
35969;SDS011;22448;51.298;6.430;2023-05-29T11:03:08;17.27;;;4.35;;
35969;SDS011;22448;51.298;6.430;2023-05-29T11:05:40;20.73;;;4.57;;
35969;SDS011;22448;51.298;6.430;2023-05-29T11:08:41;15.35;;;4.03;;
35969;SDS011;22448;51.298;6.430;2023-05-29T11:11:28;18.05;;;4.15;;
35969;SDS011;22448;51.298;6.430;2023-05-29T11:19:03;18.95;;;4.00;;
35969;SDS011;22448;51.298;6.430;2023-05-29T11:24:18;18.05;;;4.00;;
35969;SDS011;22448;51.298;6.430;2023-05-29T11:26:47;22.67;;;5.10;;
35969;SDS011;22448;51.298;6.430;2023-05-29T11:29:14;23.08;;;4.65;;
35969;SDS011;22448;51.298;6.430;2023-05-29T11:31:43;19.90;;;4.18;;
35969;SDS011;22448;51.298;6.430;2023-05-29T11:34:14;17.67;;;4.18;;
35969;SDS011;22448;51.298;6.430;2023-05-29T11:36:41;13.18;;;3.50;;
35969;SDS011;22448;51.298;6.430;2023-05-29T11:39:09;22.05;;;4.88;;
35969;SDS011;22448;51.298;6.430;2023-05-29T11:41:37;18.70;;;4.25;;
35969;SDS011;22448;51.298;6.430;2023-05-29T11:44:04;22.88;;;4.38;;
35969;SDS011;22448;51.298;6.430;2023-05-29T11:46:34;19.67;;;5.15;;
35969;SDS011;22448;51.298;6.430;2023-05-29T11:49:01;18.65;;;4.95;;
35969;SDS011;22448;51.298;6.430;2023-05-29T11:51:28;23.30;;;4.85;;
35969;SDS011;22448;51.298;6.430;2023-05-29T11:53:56;14.63;;;3.72;;
35969;SDS011;22448;51.298;6.430;2023-05-29T11:56:29;14.07;;;4.30;;
35969;SDS011;22448;51.298;6.430;2023-05-29T11:58:58;18.50;;;4.53;;
35969;SDS011;22448;51.298;6.430;2023-05-29T12:01:26;14.95;;;3.65;;
35969;SDS011;22448;51.298;6.430;2023-05-29T12:03:54;15.88;;;4.10;;
35969;SDS011;22448;51.298;6.430;2023-05-29T12:06:34;15.35;;;3.78;;
35969;SDS011;22448;51.298;6.430;2023-05-29T12:09:04;11.93;;;3.97;;
35969;SDS011;22448;51.298;6.430;2023-05-29T12:11:31;13.13;;;3.55;;
35969;SDS011;22448;51.298;6.430;2023-05-29T12:14:01;16.67;;;4.25;;
35969;SDS011;22448;51.298;6.430;2023-05-29T12:16:28;11.13;;;3.58;;
35969;SDS011;22448;51.298;6.430;2023-05-29T12:18:57;17.73;;;4.00;;
35969;SDS011;22448;51.298;6.430;2023-05-29T12:21:24;16.40;;;4.25;;
35969;SDS011;22448;51.298;6.430;2023-05-29T12:23:54;18.23;;;3.92;;
35969;SDS011;22448;51.298;6.430;2023-05-29T12:26:39;17.00;;;4.60;;
35969;SDS011;22448;51.298;6.430;2023-05-29T12:29:06;19.77;;;3.95;;
35969;SDS011;22448;51.298;6.430;2023-05-29T12:31:33;15.02;;;3.65;;
35969;SDS011;22448;51.298;6.430;2023-05-29T12:34:01;14.00;;;3.60;;
35969;SDS011;22448;51.298;6.430;2023-05-29T12:36:34;16.88;;;3.75;;
35969;SDS011;22448;51.298;6.430;2023-05-29T12:39:04;11.82;;;3.60;;
35969;SDS011;22448;51.298;6.430;2023-05-29T12:41:35;16.20;;;4.32;;
35969;SDS011;22448;51.298;6.430;2023-05-29T12:44:04;16.10;;;3.75;;
35969;SDS011;22448;51.298;6.430;2023-05-29T12:46:42;13.63;;;3.65;;
35969;SDS011;22448;51.298;6.430;2023-05-29T12:49:13;15.07;;;3.97;;
35969;SDS011;22448;51.298;6.430;2023-05-29T12:51:46;16.85;;;4.13;;
35969;SDS011;22448;51.298;6.430;2023-05-29T12:54:14;15.13;;;3.60;;
35969;SDS011;22448;51.298;6.430;2023-05-29T12:56:42;18.35;;;3.67;;
35969;SDS011;22448;51.298;6.430;2023-05-29T12:59:11;11.68;;;3.70;;
35969;SDS011;22448;51.298;6.430;2023-05-29T13:01:38;18.23;;;3.90;;
35969;SDS011;22448;51.298;6.430;2023-05-29T13:04:07;15.55;;;3.45;;
35969;SDS011;22448;51.298;6.430;2023-05-29T13:06:34;13.73;;;3.40;;
35969;SDS011;22448;51.298;6.430;2023-05-29T13:09:03;17.40;;;4.00;;
35969;SDS011;22448;51.298;6.430;2023-05-29T13:11:31;20.95;;;3.90;;
35969;SDS011;22448;51.298;6.430;2023-05-29T13:13:59;15.30;;;3.97;;
35969;SDS011;22448;51.298;6.430;2023-05-29T13:16:26;14.25;;;4.07;;
35969;SDS011;22448;51.298;6.430;2023-05-29T13:18:54;14.57;;;3.72;;
35969;SDS011;22448;51.298;6.430;2023-05-29T13:21:21;15.20;;;3.33;;
35969;SDS011;22448;51.298;6.430;2023-05-29T13:23:48;15.10;;;4.07;;
35969;SDS011;22448;51.298;6.430;2023-05-29T13:26:15;14.55;;;3.10;;
35969;SDS011;22448;51.298;6.430;2023-05-29T13:28:42;15.75;;;4.00;;
35969;SDS011;22448;51.298;6.430;2023-05-29T13:31:09;16.40;;;4.05;;
35969;SDS011;22448;51.298;6.430;2023-05-29T13:33:36;14.98;;;4.13;;
35969;SDS011;22448;51.298;6.430;2023-05-29T13:36:03;14.65;;;3.72;;
35969;SDS011;22448;51.298;6.430;2023-05-29T13:38:30;11.65;;;3.80;;
35969;SDS011;22448;51.298;6.430;2023-05-29T13:40:57;14.65;;;3.75;;
35969;SDS011;22448;51.298;6.430;2023-05-29T13:43:24;12.73;;;3.72;;
35969;SDS011;22448;51.298;6.430;2023-05-29T13:46:05;12.45;;;4.22;;
35969;SDS011;22448;51.298;6.430;2023-05-29T13:48:32;17.85;;;4.38;;
35969;SDS011;22448;51.298;6.430;2023-05-29T13:51:00;12.65;;;3.85;;
35969;SDS011;22448;51.298;6.430;2023-05-29T13:53:27;11.65;;;2.88;;
35969;SDS011;22448;51.298;6.430;2023-05-29T13:55:54;17.33;;;4.15;;
35969;SDS011;22448;51.298;6.430;2023-05-29T13:58:22;14.60;;;3.65;;
35969;SDS011;22448;51.298;6.430;2023-05-29T14:00:49;15.57;;;4.20;;
35969;SDS011;22448;51.298;6.430;2023-05-29T14:03:16;14.27;;;4.07;;
35969;SDS011;22448;51.298;6.430;2023-05-29T14:05:45;12.02;;;3.70;;
35969;SDS011;22448;51.298;6.430;2023-05-29T14:08:12;12.77;;;3.88;;
35969;SDS011;22448;51.298;6.430;2023-05-29T14:10:39;15.70;;;3.47;;
35969;SDS011;22448;51.298;6.430;2023-05-29T14:13:06;11.68;;;3.85;;
35969;SDS011;22448;51.298;6.430;2023-05-29T14:15:33;15.57;;;3.38;;
35969;SDS011;22448;51.298;6.430;2023-05-29T14:18:00;16.73;;;3.80;;
35969;SDS011;22448;51.298;6.430;2023-05-29T14:20:29;19.45;;;3.80;;
35969;SDS011;22448;51.298;6.430;2023-05-29T14:22:56;8.70;;;3.03;;
35969;SDS011;22448;51.298;6.430;2023-05-29T14:25:23;12.68;;;3.63;;
35969;SDS011;22448;51.298;6.430;2023-05-29T14:27:50;13.90;;;3.58;;
35969;SDS011;22448;51.298;6.430;2023-05-29T14:30:18;18.05;;;3.33;;
35969;SDS011;22448;51.298;6.430;2023-05-29T14:32:45;11.02;;;3.40;;
35969;SDS011;22448;51.298;6.430;2023-05-29T14:35:12;9.55;;;2.95;;
35969;SDS011;22448;51.298;6.430;2023-05-29T14:37:39;11.15;;;3.55;;
35969;SDS011;22448;51.298;6.430;2023-05-29T14:40:06;11.32;;;3.42;;
35969;SDS011;22448;51.298;6.430;2023-05-29T14:42:34;16.67;;;3.58;;
35969;SDS011;22448;51.298;6.430;2023-05-29T14:45:01;15.35;;;3.95;;
35969;SDS011;22448;51.298;6.430;2023-05-29T14:47:28;16.63;;;3.80;;
35969;SDS011;22448;51.298;6.430;2023-05-29T14:49:55;13.32;;;3.55;;
35969;SDS011;22448;51.298;6.430;2023-05-29T14:52:22;15.77;;;3.25;;
35969;SDS011;22448;51.298;6.430;2023-05-29T14:54:49;16.58;;;3.42;;
35969;SDS011;22448;51.298;6.430;2023-05-29T14:57:16;12.18;;;3.55;;
35969;SDS011;22448;51.298;6.430;2023-05-29T14:59:43;14.30;;;3.28;;
35969;SDS011;22448;51.298;6.430;2023-05-29T15:02:10;15.85;;;3.78;;
35969;SDS011;22448;51.298;6.430;2023-05-29T15:04:37;15.98;;;3.53;;
35969;SDS011;22448;51.298;6.430;2023-05-29T15:07:05;12.45;;;4.03;;
35969;SDS011;22448;51.298;6.430;2023-05-29T15:09:33;15.63;;;4.70;;
35969;SDS011;22448;51.298;6.430;2023-05-29T15:12:00;20.05;;;6.28;;
35969;SDS011;22448;51.298;6.430;2023-05-29T15:14:28;13.95;;;3.78;;
35969;SDS011;22448;51.298;6.430;2023-05-29T15:16:54;18.40;;;4.10;;
35969;SDS011;22448;51.298;6.430;2023-05-29T15:19:22;14.80;;;3.80;;